createdAt,value
2019-04-26T00:03:37.155Z,23.30
2019-04-26T00:08:42.487Z,23.30
2019-04-26T00:14:12.391Z,23.30
2019-04-26T00:19:16.217Z,23.30
2019-04-26T00:24:21.389Z,23.30
2019-04-26T00:29:25.324Z,23.30
2019-04-26T00:34:29.158Z,23.30
2019-04-26T00:39:32.877Z,23.30
2019-04-26T00:44:36.594Z,23.30
2019-04-26T00:49:43.799Z,23.30
2019-04-26T00:54:46.424Z,23.30
2019-04-26T00:59:50.197Z,23.30
2019-04-26T01:04:54.036Z,23.30
2019-04-26T01:09:57.733Z,23.30
2019-04-26T01:15:01.387Z,23.30
2019-04-26T01:20:05.309Z,23.30
2019-04-26T01:25:30.352Z,23.30
2019-04-26T01:30:34.706Z,23.30
2019-04-26T01:35:38.315Z,23.30
2019-04-26T01:40:44.535Z,23.30
2019-04-26T01:45:53.285Z,23.30
2019-04-26T01:50:57.409Z,23.30
2019-04-26T01:56:01.457Z,23.30
2019-04-26T02:01:27.486Z,23.30
2019-04-26T02:06:35.054Z,23.30
2019-04-26T02:11:37.142Z,23.30
2019-04-26T02:16:40.842Z,23.30
2019-04-26T02:21:54.098Z,23.30
2019-04-26T02:26:58.039Z,23.30
2019-04-26T02:32:04.252Z,23.30
2019-04-26T02:37:09.373Z,23.30
2019-04-26T02:42:42.330Z,23.30
2019-04-26T02:47:57.978Z,23.30
2019-04-26T02:53:25.403Z,23.30
2019-04-26T02:58:31.952Z,23.30
2019-04-26T03:03:38.144Z,23.30
2019-04-26T03:08:42.733Z,23.30
2019-04-26T03:13:52.414Z,23.30
2019-04-26T03:19:14.631Z,23.30
2019-04-26T03:24:23.296Z,23.20
2019-04-26T03:29:37.053Z,23.30
2019-04-26T03:34:53.974Z,23.20
2019-04-26T03:40:21.384Z,23.30
2019-04-26T03:45:46.593Z,23.20
2019-04-26T03:51:03.283Z,23.30
2019-04-26T03:56:47.932Z,23.30
2019-04-26T04:02:15.238Z,23.30
2019-04-26T04:07:35.575Z,23.20
2019-04-26T04:12:36.213Z,23.20
2019-04-26T04:17:50.543Z,23.30
2019-04-26T04:23:01.654Z,23.20
2019-04-26T04:28:30.095Z,23.30
2019-04-26T04:33:49.624Z,23.30
2019-04-26T04:39:12.179Z,23.20
2019-04-26T04:44:22.894Z,23.20
2019-04-26T04:49:46.166Z,23.30
2019-04-26T04:55:06.392Z,23.30
2019-04-26T05:00:27.289Z,23.30
2019-04-26T05:05:51.424Z,23.30
2019-04-26T05:11:02.000Z,23.30
2019-04-26T05:16:33.162Z,23.20
2019-04-26T05:21:51.705Z,23.30
2019-04-26T05:28:03.847Z,23.30
2019-04-26T05:33:42.029Z,23.30
2019-04-26T05:39:08.731Z,23.30
2019-04-26T05:44:36.407Z,23.30
2019-04-26T05:50:39.763Z,23.30
2019-04-26T05:56:42.280Z,23.30
2019-04-26T06:02:38.999Z,23.30
2019-04-26T06:07:59.414Z,23.30
2019-04-26T06:13:48.985Z,23.30
2019-04-26T06:19:10.464Z,23.30
2019-04-26T06:24:26.061Z,23.30
2019-04-26T06:29:52.560Z,23.30
2019-04-26T06:35:11.003Z,23.30
2019-04-26T06:40:16.481Z,23.30
2019-04-26T06:45:58.511Z,23.30
2019-04-26T06:51:24.285Z,23.30
2019-04-26T06:56:34.881Z,23.40
2019-04-26T07:01:50.827Z,23.30
2019-04-26T07:07:11.359Z,23.30
2019-04-26T07:12:33.982Z,23.30
2019-04-26T07:18:15.985Z,23.40
2019-04-26T07:24:11.775Z,23.40
2019-04-26T07:30:01.909Z,23.30
2019-04-26T07:35:15.005Z,23.30
2019-04-26T07:41:03.066Z,23.30
2019-04-26T07:47:10.848Z,23.30
2019-04-26T07:52:31.100Z,23.30
2019-04-26T07:58:23.878Z,23.30
2019-04-26T08:03:35.782Z,23.30
2019-04-26T08:08:45.698Z,23.30
2019-04-26T08:14:10.659Z,23.30
2019-04-26T08:19:17.178Z,23.30
2019-04-26T08:24:23.162Z,23.30
2019-04-26T08:29:29.812Z,23.40
2019-04-26T08:34:36.059Z,23.40
2019-04-26T08:39:45.110Z,23.40
2019-04-26T08:44:54.522Z,23.40
2019-04-26T08:50:13.690Z,23.40
2019-04-26T08:55:18.717Z,23.40
2019-04-26T09:00:48.481Z,23.40
2019-04-26T09:06:04.393Z,23.40
2019-04-26T09:11:09.095Z,23.40
2019-04-26T09:16:15.116Z,23.40
2019-04-26T09:21:28.960Z,23.40
2019-04-26T09:26:53.084Z,23.40
2019-04-26T09:32:00.811Z,23.40
2019-04-26T09:37:04.706Z,23.40
2019-04-26T09:42:16.637Z,23.40
2019-04-26T09:47:42.419Z,23.40
2019-04-26T09:52:49.318Z,23.40
2019-04-26T09:57:53.426Z,23.40
2019-04-26T10:02:58.801Z,23.40
2019-04-26T10:08:02.996Z,23.40
2019-04-26T10:13:34.310Z,23.50
2019-04-26T10:18:40.204Z,23.40
2019-04-26T10:23:44.173Z,23.50
2019-04-26T10:28:50.745Z,23.50
2019-04-26T10:33:53.670Z,23.50
2019-04-26T10:38:58.478Z,23.50
2019-04-26T10:44:02.733Z,23.50
2019-04-26T10:49:38.517Z,23.50
2019-04-26T10:54:45.952Z,23.60
2019-04-26T11:00:00.473Z,23.60
2019-04-26T11:05:05.419Z,23.60
2019-04-26T11:10:09.895Z,23.60
2019-04-26T11:15:13.829Z,23.50
2019-04-26T11:20:19.110Z,23.60
2019-04-26T11:25:24.601Z,23.60
2019-04-26T11:30:28.445Z,23.50
2019-04-26T11:35:33.223Z,23.50
2019-04-26T11:40:37.686Z,23.50
2019-04-26T11:45:41.525Z,23.50
2019-04-26T11:50:48.208Z,23.50
2019-04-26T11:55:50.823Z,23.50
2019-04-26T12:00:58.847Z,23.60
2019-04-26T12:06:37.108Z,23.60
2019-04-26T12:11:49.479Z,23.60
2019-04-26T12:16:51.032Z,23.60
2019-04-26T12:21:52.573Z,23.70
2019-04-26T12:26:57.564Z,23.70
2019-04-26T12:32:01.582Z,23.70
2019-04-26T12:37:05.400Z,23.70
2019-04-26T12:42:12.293Z,23.70
2019-04-26T12:47:30.512Z,23.70
2019-04-26T12:52:33.640Z,23.60
2019-04-26T12:57:40.836Z,23.60
2019-04-26T13:02:43.046Z,23.60
2019-04-26T13:07:51.159Z,23.60
2019-04-26T13:13:19.475Z,23.60
2019-04-26T13:18:23.397Z,23.60
2019-04-26T13:23:29.946Z,23.60
2019-04-26T13:28:34.459Z,23.60
2019-04-26T13:33:38.184Z,23.60
2019-04-26T13:38:43.405Z,23.60
2019-04-26T13:43:47.801Z,23.50
2019-04-26T13:49:14.191Z,23.60
2019-04-26T13:54:21.089Z,23.60
2019-04-26T13:59:24.322Z,23.60
2019-04-26T14:04:28.248Z,23.60
2019-04-26T14:09:32.052Z,23.60
2019-04-26T14:14:35.793Z,23.60
2019-04-26T14:19:39.781Z,23.60
2019-04-26T14:24:48.853Z,23.60
2019-04-26T14:29:53.111Z,23.60
2019-04-26T14:34:56.894Z,23.60
2019-04-26T14:40:15.980Z,23.60
2019-04-26T14:45:07.479Z,23.60
2019-04-26T14:50:14.110Z,23.60
2019-04-26T14:55:21.300Z,23.60
2019-04-26T15:00:27.927Z,23.60
2019-04-26T15:05:49.815Z,23.60
2019-04-26T15:11:01.040Z,23.60
2019-04-26T15:16:03.907Z,23.60
2019-04-26T15:21:05.783Z,23.60
2019-04-26T15:26:09.520Z,23.60
2019-04-26T15:31:17.058Z,23.60
2019-04-26T15:36:18.866Z,23.60
2019-04-26T15:41:51.368Z,23.60
2019-04-26T15:47:05.837Z,23.60
2019-04-26T15:52:09.920Z,23.60
2019-04-26T15:57:13.690Z,23.50
2019-04-26T16:02:18.441Z,23.60
2019-04-26T16:07:27.805Z,23.60
2019-04-26T16:12:28.864Z,23.60
2019-04-26T16:17:36.222Z,23.60
2019-04-26T16:22:38.415Z,23.60
2019-04-26T16:27:43.099Z,23.60
2019-04-26T16:32:58.825Z,23.60
2019-04-26T16:38:20.039Z,23.50
2019-04-26T16:43:37.018Z,23.60
2019-04-26T16:48:29.998Z,23.50
2019-04-26T16:53:58.491Z,23.50
2019-04-26T16:58:49.356Z,23.60
2019-04-26T17:03:53.625Z,23.50
2019-04-26T17:09:01.361Z,23.50
2019-04-26T17:14:04.797Z,23.60
2019-04-26T17:19:09.164Z,23.60
2019-04-26T17:24:47.049Z,23.60
2019-04-26T17:29:52.557Z,23.50
2019-04-26T17:34:59.479Z,23.50
2019-04-26T17:40:03.093Z,23.50
2019-04-26T17:57:33.441Z,23.50
2019-04-26T18:02:41.204Z,23.50
2019-04-26T18:07:43.359Z,23.60
2019-04-26T18:12:40.670Z,23.50
2019-04-26T18:18:17.688Z,23.50
2019-04-26T18:23:23.351Z,23.60
2019-04-26T18:28:27.476Z,23.60
2019-04-26T18:33:32.866Z,23.50
2019-04-26T18:38:37.065Z,23.50
2019-04-26T18:43:40.881Z,23.60
2019-04-26T18:48:44.721Z,23.50
2019-04-26T18:54:09.200Z,23.60
2019-04-26T18:59:13.486Z,23.60
2019-04-26T19:04:17.443Z,23.60
2019-04-26T19:09:23.328Z,23.60
2019-04-26T19:14:58.399Z,23.60
2019-04-26T19:20:29.630Z,23.60
2019-04-26T19:25:38.684Z,23.50
2019-04-26T19:30:43.621Z,23.50
2019-04-26T19:35:47.421Z,23.60
2019-04-26T19:40:51.901Z,23.50
2019-04-26T19:46:24.021Z,23.60
2019-04-26T19:51:52.153Z,23.50
2019-04-26T19:57:02.573Z,23.60
2019-04-26T20:02:06.008Z,23.50
2019-04-26T20:07:09.809Z,23.50
2019-04-26T20:12:13.800Z,23.50
2019-04-26T20:17:19.680Z,23.50
2019-04-26T20:22:28.272Z,23.50
2019-04-26T20:27:29.138Z,23.50
2019-04-26T20:32:37.866Z,23.50
2019-04-26T20:37:44.907Z,23.60
2019-04-26T20:42:51.183Z,23.60
2019-04-26T20:47:55.662Z,23.50
2019-04-26T20:53:01.204Z,23.50
2019-04-26T20:58:08.317Z,23.60
2019-04-26T21:03:21.096Z,23.70
2019-04-26T21:08:15.645Z,23.60
2019-04-26T21:13:23.683Z,23.70
2019-04-26T21:18:26.745Z,23.60
2019-04-26T21:23:33.810Z,23.60
2019-04-26T21:28:46.853Z,23.60
2019-04-26T21:34:07.853Z,23.70
2019-04-26T21:39:21.526Z,23.60
2019-04-26T21:44:25.350Z,23.60
2019-04-26T21:49:29.172Z,23.60
2019-04-26T21:54:33.058Z,23.60
2019-04-26T21:59:41.012Z,23.60
2019-04-26T22:04:43.603Z,23.60
2019-04-26T22:10:15.521Z,23.60
2019-04-26T22:15:41.241Z,23.60
2019-04-26T22:20:54.578Z,23.60
2019-04-26T22:26:00.226Z,23.60
2019-04-26T22:31:08.354Z,23.60
2019-04-26T22:36:10.453Z,23.60
2019-04-26T22:41:14.305Z,23.60
2019-04-26T22:46:31.321Z,23.60
2019-04-26T22:51:37.216Z,23.60
2019-04-26T22:56:41.368Z,23.60
2019-04-26T23:01:48.694Z,23.60
2019-04-26T23:06:50.590Z,23.60
2019-04-26T23:12:00.905Z,23.70
2019-04-26T23:17:23.156Z,23.70
2019-04-26T23:22:30.949Z,23.70
2019-04-26T23:27:35.813Z,23.80
2019-04-26T23:32:39.602Z,23.90
2019-04-26T23:37:43.418Z,23.90
2019-04-26T23:42:47.587Z,23.80
2019-04-26T23:47:52.938Z,23.80
2019-04-26T23:52:56.844Z,23.80
2019-04-26T23:58:00.590Z,23.70
